sensor_id;sensor_type;location;lat;lon;timestamp;temperature;humidity
40868;DHT22;26586;50.708;22.412;2023-07-02T00:02:02;24.20;61.90
40868;DHT22;26586;50.708;22.412;2023-07-02T00:04:28;24.20;62.00
40868;DHT22;26586;50.708;22.412;2023-07-02T00:06:55;24.10;62.10
40868;DHT22;26586;50.708;22.412;2023-07-02T00:09:21;24.10;62.30
40868;DHT22;26586;50.708;22.412;2023-07-02T00:11:47;24.10;62.40
40868;DHT22;26586;50.708;22.412;2023-07-02T00:14:14;24.10;62.50
40868;DHT22;26586;50.708;22.412;2023-07-02T00:16:43;24.10;62.30
40868;DHT22;26586;50.708;22.412;2023-07-02T00:19:14;24.10;62.40
40868;DHT22;26586;50.708;22.412;2023-07-02T00:21:41;24.10;62.40
40868;DHT22;26586;50.708;22.412;2023-07-02T00:24:08;24.10;62.40
40868;DHT22;26586;50.708;22.412;2023-07-02T00:26:38;24.00;62.40
40868;DHT22;26586;50.708;22.412;2023-07-02T00:29:05;24.10;62.60
40868;DHT22;26586;50.708;22.412;2023-07-02T00:31:32;24.10;62.60
40868;DHT22;26586;50.708;22.412;2023-07-02T00:34:00;24.00;62.60
40868;DHT22;26586;50.708;22.412;2023-07-02T00:36:30;24.00;62.60
40868;DHT22;26586;50.708;22.412;2023-07-02T00:38:56;24.00;62.60
40868;DHT22;26586;50.708;22.412;2023-07-02T00:41:22;24.00;62.80
40868;DHT22;26586;50.708;22.412;2023-07-02T00:43:49;24.00;63.80
40868;DHT22;26586;50.708;22.412;2023-07-02T00:46:16;24.00;63.10
40868;DHT22;26586;50.708;22.412;2023-07-02T00:48:50;24.00;63.10
40868;DHT22;26586;50.708;22.412;2023-07-02T00:51:21;24.00;62.80
40868;DHT22;26586;50.708;22.412;2023-07-02T00:53:50;24.00;62.70
40868;DHT22;26586;50.708;22.412;2023-07-02T00:56:17;24.00;62.40
40868;DHT22;26586;50.708;22.412;2023-07-02T00:58:46;23.90;62.20
40868;DHT22;26586;50.708;22.412;2023-07-02T01:01:15;23.90;62.00
40868;DHT22;26586;50.708;22.412;2023-07-02T01:03:58;23.90;61.90
40868;DHT22;26586;50.708;22.412;2023-07-02T01:06:31;23.90;61.80
40868;DHT22;26586;50.708;22.412;2023-07-02T01:09:00;23.90;61.70
40868;DHT22;26586;50.708;22.412;2023-07-02T01:11:38;23.80;61.50
40868;DHT22;26586;50.708;22.412;2023-07-02T01:14:08;23.80;61.20
40868;DHT22;26586;50.708;22.412;2023-07-02T01:16:37;23.80;61.20
40868;DHT22;26586;50.708;22.412;2023-07-02T01:19:11;23.80;61.20
40868;DHT22;26586;50.708;22.412;2023-07-02T01:21:38;23.80;61.10
40868;DHT22;26586;50.708;22.412;2023-07-02T01:24:05;23.80;61.10
40868;DHT22;26586;50.708;22.412;2023-07-02T01:26:31;23.80;61.20
40868;DHT22;26586;50.708;22.412;2023-07-02T01:29:12;23.80;61.30
40868;DHT22;26586;50.708;22.412;2023-07-02T01:31:38;23.70;61.50
40868;DHT22;26586;50.708;22.412;2023-07-02T01:34:05;23.70;61.70
40868;DHT22;26586;50.708;22.412;2023-07-02T01:36:33;23.70;61.80
40868;DHT22;26586;50.708;22.412;2023-07-02T01:39:00;23.70;62.00
40868;DHT22;26586;50.708;22.412;2023-07-02T01:41:26;23.70;62.20
40868;DHT22;26586;50.708;22.412;2023-07-02T01:43:52;23.70;62.30
40868;DHT22;26586;50.708;22.412;2023-07-02T01:46:18;23.60;62.40
40868;DHT22;26586;50.708;22.412;2023-07-02T01:48:45;23.70;62.50
40868;DHT22;26586;50.708;22.412;2023-07-02T01:51:11;23.70;62.70
40868;DHT22;26586;50.708;22.412;2023-07-02T01:53:37;23.70;62.80
40868;DHT22;26586;50.708;22.412;2023-07-02T01:56:03;23.60;63.00
40868;DHT22;26586;50.708;22.412;2023-07-02T01:58:29;23.60;63.10
40868;DHT22;26586;50.708;22.412;2023-07-02T02:00:55;23.70;63.90
40868;DHT22;26586;50.708;22.412;2023-07-02T02:03:22;23.60;63.80
40868;DHT22;26586;50.708;22.412;2023-07-02T02:05:49;23.60;64.10
40868;DHT22;26586;50.708;22.412;2023-07-02T02:08:15;23.60;64.20
40868;DHT22;26586;50.708;22.412;2023-07-02T02:10:41;23.60;63.90
40868;DHT22;26586;50.708;22.412;2023-07-02T02:13:07;23.60;63.80
40868;DHT22;26586;50.708;22.412;2023-07-02T02:15:34;23.60;64.30
40868;DHT22;26586;50.708;22.412;2023-07-02T02:18:00;23.60;64.50
40868;DHT22;26586;50.708;22.412;2023-07-02T02:20:26;23.60;64.30
40868;DHT22;26586;50.708;22.412;2023-07-02T02:22:52;23.60;64.50
40868;DHT22;26586;50.708;22.412;2023-07-02T02:25:18;23.60;64.80
40868;DHT22;26586;50.708;22.412;2023-07-02T02:27:45;23.60;65.10
40868;DHT22;26586;50.708;22.412;2023-07-02T02:30:11;23.60;64.60
40868;DHT22;26586;50.708;22.412;2023-07-02T02:32:37;23.50;65.40
40868;DHT22;26586;50.708;22.412;2023-07-02T02:35:04;23.50;65.00
40868;DHT22;26586;50.708;22.412;2023-07-02T02:37:30;23.50;64.30
40868;DHT22;26586;50.708;22.412;2023-07-02T02:39:57;23.50;64.10
40868;DHT22;26586;50.708;22.412;2023-07-02T02:42:25;23.50;64.50
40868;DHT22;26586;50.708;22.412;2023-07-02T02:44:51;23.50;65.30
40868;DHT22;26586;50.708;22.412;2023-07-02T02:47:17;23.50;65.60
40868;DHT22;26586;50.708;22.412;2023-07-02T02:49:43;23.50;65.50
40868;DHT22;26586;50.708;22.412;2023-07-02T02:52:10;23.50;66.00
40868;DHT22;26586;50.708;22.412;2023-07-02T02:54:36;23.50;65.40
40868;DHT22;26586;50.708;22.412;2023-07-02T02:57:02;23.50;65.80
40868;DHT22;26586;50.708;22.412;2023-07-02T02:59:29;23.50;65.40
40868;DHT22;26586;50.708;22.412;2023-07-02T03:01:55;23.50;66.00
40868;DHT22;26586;50.708;22.412;2023-07-02T03:04:21;23.50;66.70
40868;DHT22;26586;50.708;22.412;2023-07-02T03:06:50;23.50;66.10
40868;DHT22;26586;50.708;22.412;2023-07-02T03:09:17;23.50;65.70
40868;DHT22;26586;50.708;22.412;2023-07-02T03:11:44;23.50;64.70
40868;DHT22;26586;50.708;22.412;2023-07-02T03:14:10;23.50;64.80
40868;DHT22;26586;50.708;22.412;2023-07-02T03:16:37;23.50;64.40
40868;DHT22;26586;50.708;22.412;2023-07-02T03:19:03;23.50;64.40
40868;DHT22;26586;50.708;22.412;2023-07-02T03:21:29;23.50;64.20
40868;DHT22;26586;50.708;22.412;2023-07-02T03:23:56;23.50;64.00
40868;DHT22;26586;50.708;22.412;2023-07-02T03:26:22;23.50;63.90
40868;DHT22;26586;50.708;22.412;2023-07-02T03:28:49;23.40;64.40
40868;DHT22;26586;50.708;22.412;2023-07-02T03:31:16;23.40;64.30
40868;DHT22;26586;50.708;22.412;2023-07-02T03:33:42;23.40;64.30
40868;DHT22;26586;50.708;22.412;2023-07-02T03:36:08;23.40;64.40
40868;DHT22;26586;50.708;22.412;2023-07-02T03:38:34;23.40;64.60
40868;DHT22;26586;50.708;22.412;2023-07-02T03:41:01;23.40;64.60
40868;DHT22;26586;50.708;22.412;2023-07-02T03:43:27;23.40;64.80
40868;DHT22;26586;50.708;22.412;2023-07-02T03:45:53;23.40;66.00
40868;DHT22;26586;50.708;22.412;2023-07-02T03:48:19;23.40;65.80
40868;DHT22;26586;50.708;22.412;2023-07-02T03:50:45;23.40;65.20
40868;DHT22;26586;50.708;22.412;2023-07-02T03:53:11;23.40;67.10
40868;DHT22;26586;50.708;22.412;2023-07-02T03:55:38;23.40;68.50
40868;DHT22;26586;50.708;22.412;2023-07-02T03:58:06;23.40;67.50
40868;DHT22;26586;50.708;22.412;2023-07-02T04:00:32;23.40;66.00
40868;DHT22;26586;50.708;22.412;2023-07-02T04:02:58;23.40;65.80
40868;DHT22;26586;50.708;22.412;2023-07-02T04:05:24;23.40;65.90
40868;DHT22;26586;50.708;22.412;2023-07-02T04:07:50;23.40;66.30
40868;DHT22;26586;50.708;22.412;2023-07-02T04:10:17;23.40;66.10
40868;DHT22;26586;50.708;22.412;2023-07-02T04:12:43;23.40;66.20
40868;DHT22;26586;50.708;22.412;2023-07-02T04:15:10;23.40;66.30
40868;DHT22;26586;50.708;22.412;2023-07-02T04:17:36;23.40;66.40
40868;DHT22;26586;50.708;22.412;2023-07-02T04:20:03;23.40;66.40
40868;DHT22;26586;50.708;22.412;2023-07-02T04:22:29;23.40;66.50
40868;DHT22;26586;50.708;22.412;2023-07-02T04:24:56;23.40;66.30
40868;DHT22;26586;50.708;22.412;2023-07-02T04:27:22;23.40;67.10
40868;DHT22;26586;50.708;22.412;2023-07-02T04:29:49;23.40;66.50
40868;DHT22;26586;50.708;22.412;2023-07-02T04:32:15;23.40;66.30
40868;DHT22;26586;50.708;22.412;2023-07-02T04:34:41;23.40;66.40
40868;DHT22;26586;50.708;22.412;2023-07-02T04:37:09;23.40;66.50
40868;DHT22;26586;50.708;22.412;2023-07-02T04:39:35;23.40;66.70
40868;DHT22;26586;50.708;22.412;2023-07-02T04:42:02;23.40;66.70
40868;DHT22;26586;50.708;22.412;2023-07-02T04:44:28;23.40;66.80
40868;DHT22;26586;50.708;22.412;2023-07-02T04:47:01;23.40;67.00
40868;DHT22;26586;50.708;22.412;2023-07-02T04:49:28;23.40;67.10
40868;DHT22;26586;50.708;22.412;2023-07-02T04:51:54;23.40;67.30
40868;DHT22;26586;50.708;22.412;2023-07-02T04:54:21;23.40;67.40
40868;DHT22;26586;50.708;22.412;2023-07-02T04:56:47;23.40;67.50
40868;DHT22;26586;50.708;22.412;2023-07-02T04:59:14;23.40;67.60
40868;DHT22;26586;50.708;22.412;2023-07-02T05:01:40;23.40;67.80
40868;DHT22;26586;50.708;22.412;2023-07-02T05:04:09;23.40;68.00
40868;DHT22;26586;50.708;22.412;2023-07-02T05:06:35;23.40;68.20
40868;DHT22;26586;50.708;22.412;2023-07-02T05:09:01;23.50;68.50
40868;DHT22;26586;50.708;22.412;2023-07-02T05:11:27;23.50;68.70
40868;DHT22;26586;50.708;22.412;2023-07-02T05:13:54;23.50;68.70
40868;DHT22;26586;50.708;22.412;2023-07-02T05:16:20;23.50;69.00
40868;DHT22;26586;50.708;22.412;2023-07-02T05:18:46;23.50;69.30
40868;DHT22;26586;50.708;22.412;2023-07-02T05:21:12;23.50;69.40
40868;DHT22;26586;50.708;22.412;2023-07-02T05:23:38;23.50;69.50
40868;DHT22;26586;50.708;22.412;2023-07-02T05:26:05;23.50;69.60
40868;DHT22;26586;50.708;22.412;2023-07-02T05:28:31;23.60;69.60
40868;DHT22;26586;50.708;22.412;2023-07-02T05:30:57;23.60;69.30
40868;DHT22;26586;50.708;22.412;2023-07-02T05:33:23;23.70;69.00
40868;DHT22;26586;50.708;22.412;2023-07-02T05:35:49;23.70;68.70
40868;DHT22;26586;50.708;22.412;2023-07-02T05:38:18;23.70;68.30
40868;DHT22;26586;50.708;22.412;2023-07-02T05:40:45;23.70;68.30
40868;DHT22;26586;50.708;22.412;2023-07-02T05:43:12;23.80;68.20
40868;DHT22;26586;50.708;22.412;2023-07-02T05:45:38;23.90;68.10
40868;DHT22;26586;50.708;22.412;2023-07-02T05:48:04;23.90;67.70
40868;DHT22;26586;50.708;22.412;2023-07-02T05:50:30;24.00;67.80
40868;DHT22;26586;50.708;22.412;2023-07-02T05:52:57;24.00;67.90
40868;DHT22;26586;50.708;22.412;2023-07-02T05:55:23;24.00;68.20
40868;DHT22;26586;50.708;22.412;2023-07-02T05:57:49;24.10;67.80
40868;DHT22;26586;50.708;22.412;2023-07-02T06:00:15;24.10;67.90
40868;DHT22;26586;50.708;22.412;2023-07-02T06:02:42;24.20;67.80
40868;DHT22;26586;50.708;22.412;2023-07-02T06:05:08;24.30;67.70
40868;DHT22;26586;50.708;22.412;2023-07-02T06:07:34;24.30;67.80
40868;DHT22;26586;50.708;22.412;2023-07-02T06:10:00;24.40;67.30
40868;DHT22;26586;50.708;22.412;2023-07-02T06:12:27;24.40;67.00
40868;DHT22;26586;50.708;22.412;2023-07-02T06:14:53;24.40;67.00
40868;DHT22;26586;50.708;22.412;2023-07-02T06:17:19;24.50;66.70
40868;DHT22;26586;50.708;22.412;2023-07-02T06:19:47;24.60;66.50
40868;DHT22;26586;50.708;22.412;2023-07-02T06:22:14;24.70;66.30
40868;DHT22;26586;50.708;22.412;2023-07-02T06:24:40;24.70;66.00
40868;DHT22;26586;50.708;22.412;2023-07-02T06:27:06;24.80;65.80
40868;DHT22;26586;50.708;22.412;2023-07-02T06:29:32;24.90;65.70
40868;DHT22;26586;50.708;22.412;2023-07-02T06:31:59;25.00;65.70
40868;DHT22;26586;50.708;22.412;2023-07-02T06:34:25;25.00;65.50
40868;DHT22;26586;50.708;22.412;2023-07-02T06:36:51;25.10;65.40
40868;DHT22;26586;50.708;22.412;2023-07-02T06:39:18;25.20;65.20
40868;DHT22;26586;50.708;22.412;2023-07-02T06:41:44;25.20;65.10
40868;DHT22;26586;50.708;22.412;2023-07-02T06:44:10;25.20;65.10
40868;DHT22;26586;50.708;22.412;2023-07-02T06:46:36;25.30;65.00
40868;DHT22;26586;50.708;22.412;2023-07-02T06:49:02;25.30;64.90
40868;DHT22;26586;50.708;22.412;2023-07-02T06:51:29;25.40;64.80
40868;DHT22;26586;50.708;22.412;2023-07-02T06:53:55;25.40;64.70
40868;DHT22;26586;50.708;22.412;2023-07-02T06:56:21;25.50;64.70
40868;DHT22;26586;50.708;22.412;2023-07-02T06:58:47;25.50;64.60
40868;DHT22;26586;50.708;22.412;2023-07-02T07:01:14;25.60;64.60
40868;DHT22;26586;50.708;22.412;2023-07-02T07:03:40;25.60;64.50
40868;DHT22;26586;50.708;22.412;2023-07-02T07:06:06;25.70;64.50
40868;DHT22;26586;50.708;22.412;2023-07-02T07:08:32;25.70;64.40
40868;DHT22;26586;50.708;22.412;2023-07-02T07:10:59;25.80;64.40
40868;DHT22;26586;50.708;22.412;2023-07-02T07:13:25;25.80;64.30
40868;DHT22;26586;50.708;22.412;2023-07-02T07:15:51;25.90;64.30
40868;DHT22;26586;50.708;22.412;2023-07-02T07:18:17;25.90;64.30
40868;DHT22;26586;50.708;22.412;2023-07-02T07:20:44;26.00;64.20
40868;DHT22;26586;50.708;22.412;2023-07-02T07:23:10;26.10;64.20
40868;DHT22;26586;50.708;22.412;2023-07-02T07:25:37;26.10;64.10
40868;DHT22;26586;50.708;22.412;2023-07-02T07:28:03;26.10;64.00
40868;DHT22;26586;50.708;22.412;2023-07-02T07:30:29;26.20;63.90
40868;DHT22;26586;50.708;22.412;2023-07-02T07:32:56;26.30;63.90
40868;DHT22;26586;50.708;22.412;2023-07-02T07:35:22;26.30;63.80
40868;DHT22;26586;50.708;22.412;2023-07-02T07:37:49;26.40;63.80
40868;DHT22;26586;50.708;22.412;2023-07-02T07:40:15;26.40;63.70
40868;DHT22;26586;50.708;22.412;2023-07-02T07:42:42;26.50;63.60
40868;DHT22;26586;50.708;22.412;2023-07-02T07:45:11;26.60;63.70
40868;DHT22;26586;50.708;22.412;2023-07-02T07:47:38;26.60;63.60
40868;DHT22;26586;50.708;22.412;2023-07-02T07:50:06;26.60;63.50
40868;DHT22;26586;50.708;22.412;2023-07-02T07:52:37;26.70;63.80
40868;DHT22;26586;50.708;22.412;2023-07-02T07:55:05;26.80;63.50
40868;DHT22;26586;50.708;22.412;2023-07-02T07:57:31;26.80;63.50
40868;DHT22;26586;50.708;22.412;2023-07-02T07:59:58;26.90;63.40
40868;DHT22;26586;50.708;22.412;2023-07-02T08:02:24;26.90;63.30
40868;DHT22;26586;50.708;22.412;2023-07-02T08:04:50;27.00;63.30
40868;DHT22;26586;50.708;22.412;2023-07-02T08:07:16;27.00;63.30
40868;DHT22;26586;50.708;22.412;2023-07-02T08:09:43;27.10;62.60
40868;DHT22;26586;50.708;22.412;2023-07-02T08:12:09;27.10;63.10
40868;DHT22;26586;50.708;22.412;2023-07-02T08:14:35;27.20;63.10
40868;DHT22;26586;50.708;22.412;2023-07-02T08:17:01;27.30;62.70
40868;DHT22;26586;50.708;22.412;2023-07-02T08:19:28;27.30;62.70
40868;DHT22;26586;50.708;22.412;2023-07-02T08:21:54;27.30;62.80
40868;DHT22;26586;50.708;22.412;2023-07-02T08:24:20;27.40;62.60
40868;DHT22;26586;50.708;22.412;2023-07-02T08:26:46;27.40;62.70
40868;DHT22;26586;50.708;22.412;2023-07-02T08:29:15;27.50;62.70
40868;DHT22;26586;50.708;22.412;2023-07-02T08:31:42;27.60;62.50
40868;DHT22;26586;50.708;22.412;2023-07-02T08:34:09;27.60;62.50
40868;DHT22;26586;50.708;22.412;2023-07-02T08:36:35;27.60;61.60
40868;DHT22;26586;50.708;22.412;2023-07-02T08:39:01;27.70;61.20
40868;DHT22;26586;50.708;22.412;2023-07-02T08:41:29;27.70;61.30
40868;DHT22;26586;50.708;22.412;2023-07-02T08:43:56;27.70;61.00
40868;DHT22;26586;50.708;22.412;2023-07-02T08:46:24;27.80;59.80
40868;DHT22;26586;50.708;22.412;2023-07-02T08:48:51;27.80;59.20
40868;DHT22;26586;50.708;22.412;2023-07-02T08:51:17;27.80;58.60
40868;DHT22;26586;50.708;22.412;2023-07-02T08:53:43;27.90;59.50
40868;DHT22;26586;50.708;22.412;2023-07-02T08:56:09;27.90;59.00
40868;DHT22;26586;50.708;22.412;2023-07-02T08:58:35;27.90;59.60
40868;DHT22;26586;50.708;22.412;2023-07-02T09:01:13;28.00;59.30
40868;DHT22;26586;50.708;22.412;2023-07-02T09:03:41;28.10;59.50
40868;DHT22;26586;50.708;22.412;2023-07-02T09:06:08;28.10;58.90
40868;DHT22;26586;50.708;22.412;2023-07-02T09:08:36;28.20;59.80
40868;DHT22;26586;50.708;22.412;2023-07-02T09:11:05;28.20;60.00
40868;DHT22;26586;50.708;22.412;2023-07-02T09:13:41;28.20;60.00
40868;DHT22;26586;50.708;22.412;2023-07-02T09:16:07;28.30;60.10
40868;DHT22;26586;50.708;22.412;2023-07-02T09:18:33;28.30;59.60
40868;DHT22;26586;50.708;22.412;2023-07-02T09:20:59;28.40;59.50
40868;DHT22;26586;50.708;22.412;2023-07-02T09:23:34;28.40;58.90
40868;DHT22;26586;50.708;22.412;2023-07-02T09:26:04;28.50;58.60
40868;DHT22;26586;50.708;22.412;2023-07-02T09:28:30;28.50;58.80
40868;DHT22;26586;50.708;22.412;2023-07-02T09:30:57;28.50;59.10
40868;DHT22;26586;50.708;22.412;2023-07-02T09:33:27;28.60;59.10
40868;DHT22;26586;50.708;22.412;2023-07-02T09:35:54;28.60;59.10
40868;DHT22;26586;50.708;22.412;2023-07-02T09:38:21;28.70;58.90
40868;DHT22;26586;50.708;22.412;2023-07-02T09:40:49;28.70;59.20
40868;DHT22;26586;50.708;22.412;2023-07-02T09:43:17;28.70;59.20
40868;DHT22;26586;50.708;22.412;2023-07-02T09:45:44;28.80;59.20
40868;DHT22;26586;50.708;22.412;2023-07-02T09:48:15;28.90;59.00
40868;DHT22;26586;50.708;22.412;2023-07-02T09:50:46;28.90;59.30
40868;DHT22;26586;50.708;22.412;2023-07-02T09:53:13;28.90;58.20
40868;DHT22;26586;50.708;22.412;2023-07-02T09:55:42;29.00;58.40
40868;DHT22;26586;50.708;22.412;2023-07-02T09:58:09;29.00;58.60
40868;DHT22;26586;50.708;22.412;2023-07-02T10:00:37;29.00;58.90
40868;DHT22;26586;50.708;22.412;2023-07-02T10:03:04;29.00;58.40
40868;DHT22;26586;50.708;22.412;2023-07-02T10:05:32;29.00;58.20
40868;DHT22;26586;50.708;22.412;2023-07-02T10:08:12;29.10;58.30
40868;DHT22;26586;50.708;22.412;2023-07-02T10:10:39;29.00;57.90
40868;DHT22;26586;50.708;22.412;2023-07-02T10:13:06;29.10;57.70
40868;DHT22;26586;50.708;22.412;2023-07-02T10:15:32;29.10;58.20
40868;DHT22;26586;50.708;22.412;2023-07-02T10:18:04;29.10;57.70
40868;DHT22;26586;50.708;22.412;2023-07-02T10:20:40;29.10;58.30
40868;DHT22;26586;50.708;22.412;2023-07-02T10:23:08;29.10;58.10
40868;DHT22;26586;50.708;22.412;2023-07-02T10:25:37;29.10;58.00
40868;DHT22;26586;50.708;22.412;2023-07-02T10:28:18;29.10;58.00
40868;DHT22;26586;50.708;22.412;2023-07-02T10:30:48;29.10;58.10
40868;DHT22;26586;50.708;22.412;2023-07-02T10:33:18;29.10;56.90
40868;DHT22;26586;50.708;22.412;2023-07-02T10:35:46;29.10;57.40
40868;DHT22;26586;50.708;22.412;2023-07-02T10:40:44;29.00;57.50
40868;DHT22;26586;50.708;22.412;2023-07-02T10:43:11;29.00;57.70
40868;DHT22;26586;50.708;22.412;2023-07-02T10:45:37;29.00;57.80
40868;DHT22;26586;50.708;22.412;2023-07-02T10:48:13;29.00;57.60
40868;DHT22;26586;50.708;22.412;2023-07-02T10:50:39;29.00;57.60
40868;DHT22;26586;50.708;22.412;2023-07-02T10:53:06;29.00;57.70
40868;DHT22;26586;50.708;22.412;2023-07-02T10:55:32;29.00;58.00
40868;DHT22;26586;50.708;22.412;2023-07-02T10:58:05;29.00;58.00
40868;DHT22;26586;50.708;22.412;2023-07-02T11:00:32;28.90;58.00
40868;DHT22;26586;50.708;22.412;2023-07-02T11:02:59;29.00;56.80
40868;DHT22;26586;50.708;22.412;2023-07-02T11:05:25;28.90;57.50
40868;DHT22;26586;50.708;22.412;2023-07-02T11:07:52;28.90;57.40
40868;DHT22;26586;50.708;22.412;2023-07-02T11:10:23;28.90;56.90
40868;DHT22;26586;50.708;22.412;2023-07-02T11:12:51;28.90;57.20
40868;DHT22;26586;50.708;22.412;2023-07-02T11:15:17;28.90;57.00
40868;DHT22;26586;50.708;22.412;2023-07-02T11:17:44;28.90;56.60
40868;DHT22;26586;50.708;22.412;2023-07-02T11:20:14;28.80;57.10
40868;DHT22;26586;50.708;22.412;2023-07-02T11:22:42;28.80;56.70
40868;DHT22;26586;50.708;22.412;2023-07-02T11:25:16;28.80;56.40
40868;DHT22;26586;50.708;22.412;2023-07-02T11:27:45;28.80;57.00
40868;DHT22;26586;50.708;22.412;2023-07-02T11:30:12;28.80;57.30
40868;DHT22;26586;50.708;22.412;2023-07-02T11:32:52;28.70;57.30
40868;DHT22;26586;50.708;22.412;2023-07-02T11:35:20;28.70;57.60
40868;DHT22;26586;50.708;22.412;2023-07-02T11:37:47;28.70;57.40
40868;DHT22;26586;50.708;22.412;2023-07-02T11:40:17;28.70;57.40
40868;DHT22;26586;50.708;22.412;2023-07-02T11:42:44;28.70;57.50
40868;DHT22;26586;50.708;22.412;2023-07-02T11:45:10;28.60;57.50
40868;DHT22;26586;50.708;22.412;2023-07-02T11:47:38;28.60;57.60
40868;DHT22;26586;50.708;22.412;2023-07-02T11:50:05;28.60;57.30
40868;DHT22;26586;50.708;22.412;2023-07-02T11:52:32;28.60;57.50
40868;DHT22;26586;50.708;22.412;2023-07-02T11:54:58;28.60;57.40
40868;DHT22;26586;50.708;22.412;2023-07-02T11:57:24;28.60;57.60
40868;DHT22;26586;50.708;22.412;2023-07-02T11:59:50;28.60;57.60
40868;DHT22;26586;50.708;22.412;2023-07-02T12:02:18;28.60;57.50
40868;DHT22;26586;50.708;22.412;2023-07-02T12:04:45;28.60;57.60
40868;DHT22;26586;50.708;22.412;2023-07-02T12:07:11;28.50;57.30
40868;DHT22;26586;50.708;22.412;2023-07-02T12:09:39;28.50;57.50
40868;DHT22;26586;50.708;22.412;2023-07-02T12:12:05;28.50;56.70
40868;DHT22;26586;50.708;22.412;2023-07-02T12:14:32;28.50;57.20
40868;DHT22;26586;50.708;22.412;2023-07-02T12:16:58;28.50;57.50
40868;DHT22;26586;50.708;22.412;2023-07-02T12:19:24;28.40;57.60
40868;DHT22;26586;50.708;22.412;2023-07-02T12:21:50;28.40;57.80
40868;DHT22;26586;50.708;22.412;2023-07-02T12:24:17;28.40;58.10
40868;DHT22;26586;50.708;22.412;2023-07-02T12:26:43;28.40;58.10
40868;DHT22;26586;50.708;22.412;2023-07-02T12:29:10;28.40;58.10
40868;DHT22;26586;50.708;22.412;2023-07-02T12:31:36;28.40;58.10
40868;DHT22;26586;50.708;22.412;2023-07-02T12:34:02;28.40;58.00
40868;DHT22;26586;50.708;22.412;2023-07-02T12:36:29;28.30;58.30
40868;DHT22;26586;50.708;22.412;2023-07-02T12:38:55;28.30;58.40
40868;DHT22;26586;50.708;22.412;2023-07-02T12:41:21;28.20;58.40
40868;DHT22;26586;50.708;22.412;2023-07-02T12:43:47;28.20;58.60
40868;DHT22;26586;50.708;22.412;2023-07-02T12:46:14;28.20;58.60
40868;DHT22;26586;50.708;22.412;2023-07-02T12:48:40;28.20;58.60
40868;DHT22;26586;50.708;22.412;2023-07-02T12:51:07;28.20;58.60
40868;DHT22;26586;50.708;22.412;2023-07-02T12:53:33;28.20;58.70
40868;DHT22;26586;50.708;22.412;2023-07-02T12:55:59;28.20;58.80
40868;DHT22;26586;50.708;22.412;2023-07-02T12:58:26;28.20;58.80
40868;DHT22;26586;50.708;22.412;2023-07-02T13:00:52;28.20;58.90
40868;DHT22;26586;50.708;22.412;2023-07-02T13:03:20;28.20;58.90
40868;DHT22;26586;50.708;22.412;2023-07-02T13:05:49;28.20;58.90
40868;DHT22;26586;50.708;22.412;2023-07-02T13:08:15;28.10;58.90
40868;DHT22;26586;50.708;22.412;2023-07-02T13:10:41;28.10;58.90
40868;DHT22;26586;50.708;22.412;2023-07-02T13:13:08;28.10;58.90
40868;DHT22;26586;50.708;22.412;2023-07-02T13:15:34;28.10;58.90
40868;DHT22;26586;50.708;22.412;2023-07-02T13:18:01;28.20;59.10
40868;DHT22;26586;50.708;22.412;2023-07-02T13:20:28;28.10;59.00
40868;DHT22;26586;50.708;22.412;2023-07-02T13:22:54;28.10;58.90
40868;DHT22;26586;50.708;22.412;2023-07-02T13:25:21;28.10;59.00
40868;DHT22;26586;50.708;22.412;2023-07-02T13:27:47;28.10;59.10
40868;DHT22;26586;50.708;22.412;2023-07-02T13:30:14;28.10;59.10
40868;DHT22;26586;50.708;22.412;2023-07-02T13:32:40;28.00;58.90
40868;DHT22;26586;50.708;22.412;2023-07-02T13:35:06;28.10;59.20
40868;DHT22;26586;50.708;22.412;2023-07-02T13:37:32;28.10;59.00
40868;DHT22;26586;50.708;22.412;2023-07-02T13:39:59;28.10;58.80
40868;DHT22;26586;50.708;22.412;2023-07-02T13:42:25;28.10;59.00
40868;DHT22;26586;50.708;22.412;2023-07-02T13:44:51;28.10;58.60
40868;DHT22;26586;50.708;22.412;2023-07-02T13:47:17;28.10;57.90
40868;DHT22;26586;50.708;22.412;2023-07-02T13:49:44;28.10;58.20
40868;DHT22;26586;50.708;22.412;2023-07-02T13:52:10;28.10;58.40
40868;DHT22;26586;50.708;22.412;2023-07-02T13:54:36;28.10;57.80
40868;DHT22;26586;50.708;22.412;2023-07-02T13:57:03;28.00;58.40
40868;DHT22;26586;50.708;22.412;2023-07-02T13:59:29;28.00;58.60
40868;DHT22;26586;50.708;22.412;2023-07-02T14:01:56;28.00;58.70
40868;DHT22;26586;50.708;22.412;2023-07-02T14:04:22;28.00;58.90
40868;DHT22;26586;50.708;22.412;2023-07-02T14:06:48;28.00;59.00
40868;DHT22;26586;50.708;22.412;2023-07-02T14:09:14;28.00;59.00
40868;DHT22;26586;50.708;22.412;2023-07-02T14:11:41;27.90;58.90
40868;DHT22;26586;50.708;22.412;2023-07-02T14:14:09;27.90;59.10
40868;DHT22;26586;50.708;22.412;2023-07-02T14:16:35;27.90;59.20
40868;DHT22;26586;50.708;22.412;2023-07-02T14:19:02;27.90;59.30
40868;DHT22;26586;50.708;22.412;2023-07-02T14:21:28;27.90;59.30
40868;DHT22;26586;50.708;22.412;2023-07-02T14:23:54;27.90;59.40
40868;DHT22;26586;50.708;22.412;2023-07-02T14:26:20;27.80;59.50
40868;DHT22;26586;50.708;22.412;2023-07-02T14:28:47;27.80;59.60
40868;DHT22;26586;50.708;22.412;2023-07-02T14:31:13;27.80;59.70
40868;DHT22;26586;50.708;22.412;2023-07-02T14:33:39;27.80;59.70
40868;DHT22;26586;50.708;22.412;2023-07-02T14:36:06;27.70;59.90
40868;DHT22;26586;50.708;22.412;2023-07-02T14:38:34;27.70;60.00
40868;DHT22;26586;50.708;22.412;2023-07-02T14:41:00;27.70;60.10
40868;DHT22;26586;50.708;22.412;2023-07-02T14:43:28;27.70;60.30
40868;DHT22;26586;50.708;22.412;2023-07-02T14:45:59;27.70;60.40
40868;DHT22;26586;50.708;22.412;2023-07-02T14:48:26;27.70;60.50
40868;DHT22;26586;50.708;22.412;2023-07-02T14:50:55;27.60;60.40
40868;DHT22;26586;50.708;22.412;2023-07-02T14:53:21;27.70;60.50
40868;DHT22;26586;50.708;22.412;2023-07-02T14:55:48;27.60;60.40
40868;DHT22;26586;50.708;22.412;2023-07-02T14:58:16;27.60;60.40
40868;DHT22;26586;50.708;22.412;2023-07-02T15:00:47;27.70;60.50
40868;DHT22;26586;50.708;22.412;2023-07-02T15:03:14;27.70;60.40
40868;DHT22;26586;50.708;22.412;2023-07-02T15:05:41;27.70;60.50
40868;DHT22;26586;50.708;22.412;2023-07-02T15:08:08;27.70;60.50
40868;DHT22;26586;50.708;22.412;2023-07-02T15:10:35;27.70;60.50
40868;DHT22;26586;50.708;22.412;2023-07-02T15:13:04;27.60;60.40
40868;DHT22;26586;50.708;22.412;2023-07-02T15:15:30;27.70;60.70
40868;DHT22;26586;50.708;22.412;2023-07-02T15:17:57;27.70;60.60